Latest Coastal Weather Observations for Cape Byron

IDN60701

Issued at 9:35 pm EST Thursday 31 July 2014 (issued every 10 minutes, with the page automatically refreshed every 10 minutes)

About coastal observations | Map of coastal stations | Coastal observations for NSW | Marine services | Other Formats
Station Details ID: 058216 Name: CAPE BYRON AWS Lat: -28.64 Lon: 153.64 Height: 95.0 m
Data from the previous 72 hours. | See also: Recent months at Cape Byron
Date/Time
EST
Temp

°C
Wind Pressure Rain
since 9am
mm
Weather Cloud Vis
km
Sea
Height
m
Swell
Dir
 
Speed
knots
Gust
knots
hPa Trend Height
m
Period
s
Dir
31/09:30pm 18.5 N 8 14 1017.1 - 0.0 - - - - - - -
31/09:00pm 18.4 NNW 8 13 1017.1 - 0.0 - - - - - - -
31/08:30pm 18.3 N 6 10 1017.1 - 0.0 - - - - - - -
31/08:00pm 18.3 N 7 11 1016.6 - 0.0 - - - - - - -
31/07:30pm 18.8 N 10 16 1016.4 - 0.0 - - - - - - -
31/07:00pm 18.6 N 9 14 1016.0 - 0.0 - - - - - - -
31/06:30pm 19.0 N 11 17 1016.0 - 0.0 - - - - - - -
31/06:00pm 19.2 N 15 22 1015.5 - 0.0 - - - - - - -
31/05:30pm 19.2 N 16 22 1015.1 - 0.0 - - - - - - -
31/05:00pm 19.5 N 16 22 1014.8 - 0.0 - - - - - - -
31/04:48pm 19.7 N 17 27 1014.8 - 0.0 - - - - - - -
31/04:30pm 19.9 N 18 24 1014.7 - 0.0 - - - - - - -
31/04:00pm 20.1 N 16 22 1014.8 - 0.0 - - - - - - -
31/03:30pm 20.2 NNE 14 20 1014.9 - 0.0 - - - - - - -
31/03:00pm 20.5 NNE 14 19 1015.0 - 0.0 - - - - - - -
31/02:30pm 20.2 NNE 14 22 1015.2 - 0.0 - - - - - - -
31/02:00pm 20.3 NNE 13 22 1015.5 - 0.0 - - - - - - -
31/01:30pm 20.6 NNE 13 19 1016.1 - 0.0 - - - - - - -
31/01:00pm 20.9 NNE 10 16 1016.8 - 0.0 - - - - - - -
31/12:30pm 21.0 N 9 14 1017.7 - 0.0 - - - - - - -
31/12:00pm 20.8 N 8 13 1018.3 - 0.0 - - - - - - -
31/11:30am 20.0 N 8 11 1019.0 - 0.0 - - - - - - -
31/11:00am 19.6 N 7 10 1019.6 - 0.0 - - - - - - -
31/10:30am 18.9 NNE 6 8 1020.2 - 0.0 - - - - - - -
31/10:00am 18.8 N 4 6 1020.5 - 0.0 - - - - - - -
31/09:30am 18.4 N 5 6 1020.7 - 0.0 - - - - - - -
31/09:00am 18.4 N 4 5 1020.7 - 0.0 - - - - - - -
31/08:30am 17.5 N 5 6 1020.7 - 0.0 - - - - - - -
31/08:00am 17.1 NNE 5 6 1020.4 - 0.0 - - - - - - -
31/07:30am 16.0 NE 5 8 1020.3 - 0.0 - - - - - - -
31/07:00am 15.4 NE 5 7 1020.0 - 0.0 - - - - - - -
31/06:30am 15.4 NE 6 8 1019.8 - 0.0 - - - - - - -
31/06:00am 15.1 NNW 7 8 1019.5 - 0.0 - - - - - - -
31/05:30am 15.6 NNW 7 8 1019.3 - 0.0 - - - - - - -
31/05:00am 14.6 NNW 8 9 1019.2 - 0.0 - - - - - - -
31/04:30am 14.8 NNW 7 7 1019.2 - 0.0 - - - - - - -
31/04:00am 16.1 N 6 7 1019.1 - 0.0 - - - - - - -
31/03:30am 16.5 N 5 6 1019.1 - 0.0 - - - - - - -
31/03:00am 15.7 N 2 6 1019.2 - 0.0 - - - - - - -
31/02:30am 15.7 NNW 7 8 1019.4 - 0.0 - - - - - - -
31/02:00am 15.2 NNW 5 7 1019.5 - 0.0 - - - - - - -
31/01:30am 13.5 WNW 6 7 1019.9 - 0.0 - - - - - - -
31/01:00am 14.3 N 3 4 1019.8 - 0.0 - - - - - - -
31/12:30am 14.7 NNW 6 7 1019.9 - 0.0 - - - - - - -
31/12:00am 14.2 NNW 5 8 1019.9 - 0.0 - - - - - - -
 
Date/Time
EST
Temp

°C
Wind Pressure Rain
since 9am
mm
Weather Cloud Vis
km
Sea
Height
m
Swell
Dir
 
Speed
knots
Gust
knots
hPa Trend Height
m
Period
s
Dir
30/11:30pm 14.0 NNW 6 7 1020.2 - 0.0 - - - - - - -
30/11:00pm 14.4 NNW 6 8 1020.3 - 0.0 - - - - - - -
30/10:30pm 14.5 NNW 7 11 1020.4 - 0.0 - - - - - - -
30/10:00pm 14.4 NNW 6 8 1020.4 - 0.0 - - - - - - -
30/09:30pm 15.1 NNW 5 8 1020.6 - 0.0 - - - - - - -
30/09:00pm 15.9 N 4 6 1020.4 - 0.0 - - - - - - -
30/08:30pm 15.4 NNW 6 9 1020.5 - 0.0 - - - - - - -
30/08:00pm 15.8 NNW 4 6 1020.6 - 0.0 - - - - - - -
30/07:30pm 17.6 N 9 11 1020.6 - 0.0 - - - - - - -
30/07:00pm 17.8 N 10 13 1020.2 - 0.0 - - - - - - -
30/06:30pm 17.8 N 9 11 1020.2 - 0.0 - - - - - - -
30/06:00pm 18.0 N 9 11 1019.9 - 0.0 - - - - - - -
30/05:30pm 18.0 N 7 10 1020.0 - 0.0 - - - - - - -
30/05:00pm 18.4 N 7 10 1019.7 - 0.0 - - - - - - -
30/04:30pm 19.2 N 6 9 1019.7 - 0.0 - - - - - - -
30/04:00pm 19.6 NNE 7 10 1019.3 - 0.0 - - - - - - -
30/03:30pm 20.1 NE 9 11 1019.2 - 0.0 - - - - - - -
30/03:00pm 20.6 ENE 9 11 1019.1 - 0.0 - - - - - - -
30/02:30pm 21.1 ENE 9 11 1019.3 - 0.0 - - - - - - -
30/02:00pm 21.3 NE 9 11 1019.4 - 0.0 - - - - - - -
30/01:30pm 21.1 ENE 8 10 1019.7 - 0.0 - - - - - - -
30/01:00pm 20.6 E 8 10 1020.0 - 0.0 - - - - - - -
30/12:30pm 21.0 ENE 7 9 1020.4 - 0.0 - - - - - - -
30/12:00pm 20.6 ENE 7 8 1020.9 - 0.0 - - - - - - -
30/11:30am 20.3 ENE 7 9 1021.5 - 0.0 - - - - - - -
30/11:00am 20.6 NE 7 8 1021.8 - 0.0 - - - - - - -
30/10:30am 19.9 E 4 6 1022.4 - 0.0 - - - - - - -
30/10:00am 19.0 S 4 5 1022.5 - 0.0 - - - - - - -
30/09:30am 19.3 WNW 2 4 1022.8 - 0.0 - - - - - - -
30/09:00am 18.2 NW 4 7 1022.8 - 0.0 - - - - - - -
30/08:30am 16.2 WNW 7 9 1022.8 - 0.0 - - - - - - -
30/08:00am 15.4 WNW 8 9 1022.4 - 0.0 - - - - - - -
30/07:30am 15.1 WNW 9 11 1022.4 - 0.0 - - - - - - -
30/07:00am 15.0 WNW 11 13 1021.8 - 0.0 - - - - - - -
30/06:30am 14.6 WNW 11 13 1021.5 - 0.0 - - - - - - -
30/06:00am 14.8 WNW 12 14 1021.4 - 0.0 - - - - - - -
30/05:30am 15.0 WNW 11 14 1021.3 - 0.0 - - - - - - -
30/05:00am 14.8 WNW 12 14 1021.0 - 0.0 - - - - - - -
30/04:30am 14.7 WNW 11 13 1020.7 - 0.0 - - - - - - -
30/04:00am 15.5 W 12 15 1020.5 - 0.0 - - - - - - -
30/03:30am 15.3 WNW 11 14 1020.6 - 0.0 - - - - - - -
30/03:00am 15.3 W 10 12 1020.6 - 0.0 - - - - - - -
30/02:30am 15.3 WNW 10 12 1020.7 - 0.0 - - - - - - -
30/02:00am 13.8 NW 8 10 1020.6 - 0.0 - - - - - - -
30/01:30am 13.6 NW 6 9 1021.0 - 0.0 - - - - - - -
30/01:00am 14.0 NNW 6 8 1021.3 - 0.0 - - - - - - -
30/12:30am 13.4 NW 7 9 1021.5 - 0.0 - - - - - - -
30/12:00am 14.1 NNW 5 8 1021.6 - 0.0 - - - - - - -
 
Date/Time
EST
Temp

°C
Wind Pressure Rain
since 9am
mm
Weather Cloud Vis
km
Sea
Height
m
Swell
Dir
 
Speed
knots
Gust
knots
hPa Trend Height
m
Period
s
Dir
29/11:30pm 13.7 NW 5 8 1021.7 - 0.0 - - - - - - -
29/11:00pm 14.0 NNW 4 8 1021.9 - 0.0 - - - - - - -
29/10:30pm 14.4 NNE 4 7 1021.6 - 0.0 - - - - - - -
29/10:00pm 13.2 N 4 7 1021.4 - 0.0 - - - - - - -
29/09:30pm 12.8 NW 5 9 1021.4 - 0.0 - - - - - - -
29/09:00pm 13.4 NW 5 7 1021.1 - 0.0 - - - - - - -
29/08:30pm 13.8 NNW 6 8 1021.0 - 0.0 - - - - - - -
29/08:00pm 15.5 NNW 5 8 1020.7 - 0.0 - - - - - - -
29/07:30pm 16.8 N 8 11 1020.7 - 0.0 - - - - - - -
29/07:00pm 16.9 NNE 8 11 1020.3 - 0.0 - - - - - - -
29/06:30pm 16.9 N 10 13 1020.1 - 0.0 - - - - - - -
29/06:00pm 16.9 NNE 8 11 1020.1 - 0.0 - - - - - - -
29/05:30pm 17.0 NNE 7 10 1020.1 - 0.0 - - - - - - -
29/05:00pm 16.9 NE 8 10 1019.9 - 0.0 - - - - - - -
29/04:30pm 17.8 E 5 7 1019.9 - 0.0 - - - - - - -
29/04:00pm 18.1 E 8 10 1019.6 - 0.0 - - - - - - -
29/03:30pm 17.9 ESE 9 11 1019.6 - 0.0 - - - - - - -
29/03:00pm 18.1 SE 10 13 1019.6 - 0.0 - - - - - - -
29/02:30pm 18.1 SE 11 13 1019.9 - 0.0 - - - - - - -
29/02:00pm 18.4 ESE 10 13 1019.9 - 0.0 - - - - - - -
29/01:30pm 18.3 SE 11 13 1020.2 - 0.0 - - - - - - -
29/01:00pm 18.7 SE 8 11 1020.2 - 0.0 - - - - - - -
29/12:30pm 18.7 SE 7 10 1020.6 - 0.0 - - - - - - -
29/12:00pm 18.3 S 7 10 1021.1 - 0.0 - - - - - - -
29/11:30am 18.0 SW 7 13 1021.7 - 0.0 - - - - - - -
29/11:00am 17.5 SW 10 13 1022.2 - 0.0 - - - - - - -
29/10:30am 17.0 WSW 10 14 1022.3 - 0.0 - - - - - - -
29/10:00am 16.8 W 10 15 1022.3 - 0.0 - - - - - - -
29/09:30am 16.3 W 10 15 1022.4 - 0.0 - - - - - - -
29/09:00am 15.7 W 13 17 1022.2 - 0.0 - - - - - - -
29/08:30am 14.9 W 13 17 1022.2 - 0.0 - - - - - - -
29/08:00am 14.3 WNW 10 15 1021.7 - 0.0 - - - - - - -
29/07:30am 13.6 W 14 19 1021.6 - 0.0 - - - - - - -
29/07:00am 13.4 W 16 20 1021.1 - 0.0 - - - - - - -
29/06:30am 13.3 W 15 19 1020.9 - 0.0 - - - - - - -
29/06:00am 13.7 W 15 19 1020.7 - 0.0 - - - - - - -
29/05:30am 13.7 W 14 16 1020.6 - 0.0 - - - - - - -
29/05:00am 14.1 W 14 17 1020.4 - 0.0 - - - - - - -
29/04:30am 14.2 W 14 18 1020.2 - 0.0 - - - - - - -
29/04:00am 14.9 W 13 16 1019.9 - 0.0 - - - - - - -
29/03:30am 14.9 WSW 13 16 1019.9 - 0.0 - - - - - - -
29/03:00am 14.9 W 12 15 1019.8 - 0.0 - - - - - - -
29/02:30am 15.1 WSW 8 11 1019.9 - 0.0 - - - - - - -
29/02:00am 14.2 WSW 6 7 1020.0 - 0.0 - - - - - - -
29/01:30am 13.1 NW 6 8 1020.3 - 0.0 - - - - - - -
29/01:00am 13.5 NW 4 8 1020.4 - 0.0 - - - - - - -
29/12:30am 13.5 NNW 5 7 1020.8 - 0.0 - - - - - - -
29/12:00am 13.9 NNW 4 6 1020.9 - 0.0 - - - - - - -
 
Date/Time
EST
Temp

°C
Wind Pressure Rain
since 9am
mm
Weather Cloud Vis
km
Sea
Height
m
Swell
Dir
 
Speed
knots
Gust
knots
hPa Trend Height
m
Period
s
Dir
28/11:30pm 14.0 NNW 4 6 1021.2 - 0.0 - - - - - - -
28/11:00pm 14.1 NW 5 9 1021.3 - 0.0 - - - - - - -
28/10:30pm 14.3 NNE 4 6 1021.5 - 0.0 - - - - - - -
28/10:00pm 14.7 N 4 6 1021.5 - 0.0 - - - - - - -

Other Formats:

Comma delimited format used in spreadsheet applications
http://www.bom.gov.au/fwo/IDN60701/IDN60701.94599.axf

JavaScript Object Notation format (JSON) in row-major order
http://www.bom.gov.au/fwo/IDN60701/IDN60701.94599.json